ADDS METAR Data INFO
IDs: Format: Raw Decoded Include TAF

Data at: 1508 UTC 11 Dec 2017

K0VG 111450Z AUTO 00000KT 10SM CLR 00/M04 A3016 RMK AO2
K0VG 111430Z AUTO 00000KT 10SM CLR M02/M04 A3016 RMK AO2
K0VG 111410Z AUTO 00000KT 10SM CLR M03/M05 A3017 RMK AO2
K0VG 111350Z AUTO 00000KT 10SM CLR M03/M05 A3016 RMK AO2
K0VG 111330Z AUTO 00000KT 10SM CLR M05/M06 A3016 RMK AO2
K0VG 111310Z AUTO 00000KT 10SM CLR M07/M08 A3016 RMK AO2
K0VG 111250Z AUTO 00000KT 10SM CLR M07/M08 A3017 RMK AO2
K0VG 111230Z AUTO 00000KT 10SM CLR M07/M08 A3017 RMK AO2
K0VG 111210Z AUTO 00000KT 10SM CLR M07/M08 A3016 RMK AO2
K0VG 111150Z AUTO 00000KT 10SM CLR M07/M08 A3016 RMK AO2
K0VG 111130Z AUTO 00000KT 10SM CLR M07/M08 A3016 RMK AO2
K0VG 111110Z AUTO 00000KT 10SM CLR M07/M08 A3016 RMK AO2
K0VG 111050Z AUTO 00000KT 10SM CLR M07/M08 A3015 RMK AO2
K0VG 111030Z AUTO 00000KT 10SM CLR M07/M07 A3015 RMK AO2
K0VG 111010Z AUTO 00000KT 10SM CLR M07/M07 A3016 RMK AO2
K0VG 110950Z AUTO 00000KT 10SM CLR M07/M08 A3017 RMK AO2
K0VG 110930Z AUTO 00000KT 10SM CLR M07/M07 A3017 RMK AO2
K0VG 110910Z AUTO 00000KT 10SM CLR M07/M07 A3018 RMK AO2
K0VG 110850Z AUTO 00000KT 10SM CLR M06/M07 A3018 RMK AO2
K0VG 110830Z AUTO 00000KT 10SM CLR M06/M07 A3018 RMK AO2
K0VG 110810Z AUTO 00000KT 10SM CLR M07/M07 A3018 RMK AO2
K0VG 110750Z AUTO 00000KT 10SM CLR M06/M07 A3018 RMK AO2
K0VG 110730Z AUTO 00000KT 10SM CLR M05/M07 A3018 RMK AO2
K0VG 110710Z AUTO 00000KT 10SM CLR M06/M07 A3018 RMK AO2
K0VG 110650Z AUTO 00000KT 10SM CLR M05/M06 A3018 RMK AO2
K0VG 110630Z AUTO 00000KT 10SM CLR M05/M07 A3018 RMK AO2
K0VG 110610Z AUTO 00000KT 10SM CLR M05/M06 A3018 RMK AO2
K0VG 110550Z AUTO 00000KT 10SM CLR M05/M06 A3018 RMK AO2
K0VG 110530Z AUTO 00000KT 10SM CLR M05/M06 A3019 RMK AO2
K0VG 110510Z AUTO 00000KT 10SM CLR M04/M06 A3019 RMK AO2
K0VG 110450Z AUTO 00000KT 10SM CLR M04/M06 A3019 RMK AO2
K0VG 110430Z AUTO 00000KT 10SM CLR M04/M06 A3019 RMK AO2
K0VG 110410Z AUTO 00000KT 10SM CLR M05/M07 A3019 RMK AO2
K0VG 110350Z AUTO 00000KT 10SM CLR M04/M07 A3019 RMK AO2
K0VG 110330Z AUTO 00000KT 10SM CLR M04/M06 A3018 RMK AO2
K0VG 110310Z AUTO 00000KT 10SM CLR M04/M06 A3018 RMK AO2
K0VG 110250Z AUTO 00000KT 10SM CLR M03/M06 A3017 RMK AO2
K0VG 110230Z AUTO 00000KT 10SM CLR M03/M06 A3017 RMK AO2
K0VG 110210Z AUTO 00000KT 10SM CLR M03/M05 A3017 RMK AO2
K0VG 110150Z AUTO 00000KT 10SM CLR M03/M06 A3016 RMK AO2
K0VG 110130Z AUTO 00000KT 10SM CLR M03/M07 A3016 RMK AO2
K0VG 110110Z AUTO 00000KT 10SM CLR M03/M07 A3015 RMK AO2
K0VG 110050Z AUTO 00000KT 10SM CLR M02/M07 A3015 RMK AO2
K0VG 110030Z AUTO 00000KT 10SM CLR M01/M07 A3014 RMK AO2
K0VG 110010Z AUTO 00000KT 10SM CLR M01/M07 A3014 RMK AO2
K0VG 102350Z AUTO 00000KT 10SM CLR 00/M07 A3014 RMK AO2
K0VG 102330Z AUTO 00000KT 10SM CLR 00/M07 A3012 RMK AO2
K0VG 102310Z AUTO 00000KT 10SM FEW017 02/M08 A3012 RMK AO2
K0VG 102250Z AUTO 00000KT 10SM CLR 02/M08 A3013 RMK AO2
K0VG 102230Z AUTO 00000KT 10SM CLR 03/M08 A3012 RMK AO2
K0VG 102210Z AUTO 21007KT 10SM CLR 03/M09 A3013 RMK AO2
K0VG 102150Z AUTO 21009KT 10SM CLR 04/M09 A3013 RMK AO2
K0VG 102130Z AUTO 22009KT 10SM CLR 04/M09 A3013 RMK AO2
K0VG 102110Z AUTO 24006KT 10SM CLR 04/M09 A3013 RMK AO2
K0VG 102050Z AUTO 23006KT 10SM CLR 04/M09 A3013 RMK AO2
K0VG 102030Z AUTO 23007KT 10SM CLR 04/M09 A3013 RMK AO2
K0VG 102010Z AUTO 25009KT 10SM CLR 04/M09 A3013 RMK AO2
K0VG 101950Z AUTO 24008KT 10SM CLR 04/M09 A3013 RMK AO2
K0VG 101930Z AUTO 24005KT 10SM CLR 04/M09 A3014 RMK AO2
K0VG 101910Z AUTO 24006KT 10SM CLR 04/M09 A3014 RMK AO2
K0VG 101850Z AUTO 22008KT 10SM CLR 04/M09 A3015 RMK AO2
K0VG 101830Z AUTO 22007KT 10SM CLR 03/M09 A3015 RMK AO2
K0VG 101810Z AUTO 22008KT 10SM CLR 03/M09 A3016 RMK AO2
K0VG 101750Z AUTO 25009KT 10SM CLR 03/M08 A3017 RMK AO2
K0VG 101730Z AUTO 24009KT 10SM CLR 02/M09 A3018 RMK AO2
K0VG 101710Z AUTO 24008KT 10SM CLR 02/M08 A3020 RMK AO2
K0VG 101650Z AUTO 25007KT 10SM CLR 02/M08 A3020 RMK AO2
K0VG 101630Z AUTO 26007KT 10SM CLR 01/M08 A3021 RMK AO2
K0VG 101610Z AUTO 23010KT 10SM CLR 01/M09 A3022 RMK AO2
K0VG 101550Z AUTO 22008KT 10SM CLR 00/M09 A3022 RMK AO2
K0VG 101530Z AUTO 19006KT 10SM CLR 00/M09 A3023 RMK AO2
K0VG 101510Z AUTO 27003KT 10SM CLR 00/M08 A3025 RMK AO2
K0VG 101450Z AUTO 22004KT 10SM CLR M01/M08 A3024 RMK AO2
K0VG 101430Z AUTO 23005KT 10SM CLR M01/M08 A3024 RMK AO2
K0VG 101410Z AUTO 24004KT 10SM CLR M02/M08 A3024 RMK AO2
K0VG 101350Z AUTO 24005KT 10SM CLR M02/M08 A3024 RMK AO2
K0VG 101330Z AUTO 24004KT 10SM CLR M02/M08 A3023 RMK AO2
K0VG 101310Z AUTO 27003KT 10SM SCT033 M03/M08 A3022 RMK AO2
K0VG 101250Z AUTO 26005KT 10SM OVC033 M03/M08 A3022 RMK AO2
K0VG 101230Z AUTO 27004KT 10SM OVC033 M02/M08 A3021 RMK AO2
K0VG 101210Z AUTO 25005KT 10SM OVC033 M02/M08 A3021 RMK AO2
K0VG 101150Z AUTO 25004KT 10SM OVC035 M02/M08 A3020 RMK AO2
K0VG 101130Z AUTO 25005KT 10SM OVC037 M02/M08 A3019 RMK AO2
K0VG 101110Z AUTO 25004KT 10SM OVC037 M02/M08 A3018 RMK AO2
K0VG 101050Z AUTO 25003KT 10SM OVC037 M02/M08 A3017 RMK AO2
K0VG 101030Z AUTO 25003KT 10SM OVC037 M02/M08 A3017 RMK AO2
K0VG 101010Z AUTO 24008KT 10SM OVC037 M02/M08 A3017 RMK AO2
K0VG 100950Z AUTO 25004KT 10SM OVC037 M02/M08 A3016 RMK AO2
K0VG 100930Z AUTO 26006KT 10SM OVC037 M02/M08 A3016 RMK AO2
K0VG 100910Z AUTO 25007KT 10SM OVC035 M02/M08 A3016 RMK AO2
K0VG 100850Z AUTO 25005KT 10SM OVC033 M02/M07 A3017 RMK AO2
K0VG 100830Z AUTO 26005KT 10SM BKN031 OVC037 M02/M07 A3016 RMK AO2
K0VG 100810Z AUTO 24005KT 10SM OVC033 M02/M07 A3016 RMK AO2
K0VG 100750Z AUTO 27005KT 10SM OVC033 M02/M08 A3015 RMK AO2
K0VG 100730Z AUTO 26006KT 10SM OVC033 M02/M08 A3014 RMK AO2
K0VG 100710Z AUTO 26006KT 10SM OVC033 M02/M08 A3014 RMK AO2
K0VG 100650Z AUTO 27009KT 10SM OVC035 M02/M08 A3013 RMK AO2
K0VG 100630Z AUTO 27008G16KT 10SM OVC037 M02/M08 A3013 RMK AO2
K0VG 100610Z AUTO 29010KT 10SM OVC034 M02/M08 A3013 RMK AO2
K0VG 100550Z AUTO 28010KT 10SM BKN036 OVC043 M01/M08 A3013 RMK AO2
K0VG 100530Z AUTO 29008KT 10SM OVC040 M01/M08 A3012 RMK AO2
K0VG 100510Z AUTO 29013G19KT 10SM OVC038 M01/M08 A3011 RMK AO2
K0VG 100450Z AUTO 28008G15KT 10SM OVC036 M01/M07 A3010 RMK AO2 P0001
K0VG 100430Z AUTO 27009G17KT 10SM BKN036 OVC044 00/M07 A3009 RMK AO2 P0001
K0VG 100410Z AUTO 28008G18KT 6SM -SN FEW003 BKN030 OVC044 M01/M06 A3008 RMK AO2 P0001
K0VG 100350Z AUTO 27008KT 020V030 7SM -SN FEW017 OVC029 M01/M04 A3008 RMK AO2 P0001
K0VG 100330Z AUTO 27006KT 9SM -RA FEW017 BKN027 OVC033 M01/M04 A3007 RMK AO2
K0VG 100310Z AUTO 25004KT 9SM -SN OVC030 M02/M04 A3006 RMK AO2